Time;durP1;ratioP1;P1;durP2;ratioP2;P2;SDS_P1;SDS_P2;PMS_P1;PMS_P2;Temp;Humidity;BMP_temperature;BMP_pressure;BME280_temperature;BME280_humidity;BME280_pressure;Samples;Min_cycle;Max_cycle;Signal;HPM_P1;HPM_P2
2021/11/02 00:02:04;;;;;;;16.10;7.88;;;;;;;6.04;100.00;99892.69;5030936;28;20076;-74
2021/11/02 00:04:32;;;;;;;17.60;6.95;;;;;;;6.04;100.00;99890.91;5025162;28;20041;-67
2021/11/02 00:07:00;;;;;;;14.90;6.53;;;;;;;6.02;100.00;99883.94;5029777;28;20048;-67
2021/11/02 00:09:32;;;;;;;13.25;7.28;;;;;;;5.98;100.00;99886.66;5024712;28;20119;-67
2021/11/02 00:12:01;;;;;;;11.75;6.35;;;;;;;5.96;100.00;99885.84;5028477;28;20050;-67
2021/11/02 00:14:30;;;;;;;13.48;6.75;;;;;;;5.98;100.00;99884.00;5030108;28;20103;-67
2021/11/02 00:17:03;;;;;;;17.88;6.30;;;;;;;5.92;100.00;99885.94;5027451;28;20052;-74
2021/11/02 00:19:33;;;;;;;15.57;7.80;;;;;;;5.98;100.00;99886.66;5028583;28;20041;-74
2021/11/02 00:22:09;;;;;;;17.02;7.55;;;;;;;6.01;100.00;99888.38;5025189;28;20157;-74
2021/11/02 00:24:55;;;;;;;13.38;7.25;;;;;;;6.01;100.00;99880.41;5030631;28;20135;-74
2021/11/02 00:27:24;;;;;;;16.25;7.10;;;;;;;5.99;100.00;99882.22;5023015;28;20053;-73
2021/11/02 00:29:53;;;;;;;14.82;6.88;;;;;;;5.94;100.00;99871.75;5029976;28;20053;-77
2021/11/02 00:32:21;;;;;;;15.50;7.55;;;;;;;5.96;100.00;99884.97;5022839;28;20092;-66
2021/11/02 00:34:50;;;;;;;16.42;7.90;;;;;;;6.04;100.00;99869.72;5026527;28;20259;-66
2021/11/02 00:37:18;;;;;;;14.00;6.93;;;;;;;6.00;100.00;99880.47;5025288;28;20049;-74
2021/11/02 00:39:46;;;;;;;15.13;7.57;;;;;;;6.02;100.00;99883.94;5025388;28;20049;-74
2021/11/02 00:42:15;;;;;;;17.52;6.55;;;;;;;6.07;100.00;99869.63;5027852;28;20057;-74
2021/11/02 00:44:44;;;;;;;13.52;6.68;;;;;;;6.05;100.00;99875.91;5022364;28;20056;-74
2021/11/02 00:47:18;;;;;;;16.35;8.35;;;;;;;6.04;100.00;99871.50;5026965;28;20176;-73
2021/11/02 00:49:46;;;;;;;16.00;8.15;;;;;;;6.09;100.00;99870.44;5023648;28;20072;-74
2021/11/02 00:52:15;;;;;;;18.52;9.25;;;;;;;6.09;100.00;99872.25;5025033;28;20132;-74
2021/11/02 00:54:43;;;;;;;17.83;8.38;;;;;;;6.06;100.00;99864.38;5024632;28;20191;-73
2021/11/02 00:57:10;;;;;;;16.60;7.43;;;;;;;6.11;100.00;99868.66;5025267;28;20164;-73
2021/11/02 00:59:39;;;;;;;18.33;9.40;;;;;;;6.17;100.00;99870.25;5028828;28;20049;-73
2021/11/02 01:02:09;;;;;;;13.27;7.80;;;;;;;6.16;100.00;99866.72;5023043;28;20164;-73
2021/11/02 01:04:38;;;;;;;18.63;8.07;;;;;;;6.21;100.00;99871.88;5028533;28;20053;-73
2021/11/02 01:07:07;;;;;;;14.85;8.23;;;;;;;6.14;100.00;99865.03;5026384;28;20477;-74
2021/11/02 01:09:36;;;;;;;18.98;8.32;;;;;;;6.18;100.00;99869.34;5028012;28;20143;-73
2021/11/02 01:12:04;;;;;;;14.85;7.68;;;;;;;6.13;100.00;99872.13;5025679;28;20128;-74
2021/11/02 01:14:32;;;;;;;17.98;9.70;;;;;;;6.16;100.00;99869.38;5027724;28;20080;-73
2021/11/02 01:17:00;;;;;;;14.88;7.35;;;;;;;6.14;100.00;99868.53;5028509;28;20556;-73
2021/11/02 01:19:28;;;;;;;17.38;7.88;;;;;;;6.11;100.00;99871.31;5019176;28;20061;-73
2021/11/02 01:21:56;;;;;;;13.68;7.80;;;;;;;6.14;100.00;99872.97;5024152;28;20181;-73
2021/11/02 01:24:24;;;;;;;15.10;8.50;;;;;;;6.12;100.00;99869.50;5022869;28;20053;-73
2021/11/02 01:26:53;;;;;;;15.77;8.40;;;;;;;6.14;100.00;99872.97;5026187;28;20244;-73
2021/11/02 01:29:21;;;;;;;15.05;8.07;;;;;;;6.15;100.00;99867.63;5020976;28;20713;-73
2021/11/02 01:31:49;;;;;;;19.45;8.80;;;;;;;6.16;100.00;99879.09;5025565;28;20044;-74
2021/11/02 01:34:17;;;;;;;16.90;7.78;;;;;;;6.16;100.00;99872.03;5026646;28;20060;-74
2021/11/02 01:36:45;;;;;;;16.25;8.48;;;;;;;6.16;100.00;99866.72;5023035;28;22373;-73
2021/11/02 01:39:13;;;;;;;20.10;9.45;;;;;;;6.21;100.00;99876.31;5027848;28;20305;-74
2021/11/02 01:41:41;;;;;;;14.18;7.78;;;;;;;6.19;100.00;99872.84;5019670;28;20049;-73
2021/11/02 01:44:11;;;;;;;17.17;8.23;;;;;;;6.24;100.00;99862.97;5026511;28;20054;-73
2021/11/02 01:46:40;;;;;;;16.92;9.35;;;;;;;6.22;100.00;99868.31;5024774;28;20342;-74
2021/11/02 01:49:09;;;;;;;18.23;8.40;;;;;;;6.21;100.00;99863.94;5028015;28;20132;-74
2021/11/02 01:51:40;;;;;;;18.58;8.20;;;;;;;6.18;100.00;99866.69;5027701;28;20037;-74
2021/11/02 01:54:11;;;;;;;21.02;8.55;;;;;;;6.24;100.00;99866.50;5024225;28;20139;-73
2021/11/02 01:56:41;;;;;;;18.38;9.07;;;;;;;6.22;100.00;99870.97;5027637;28;20056;-73
2021/11/02 01:59:10;;;;;;;17.98;8.88;;;;;;;6.24;100.00;99873.59;5024469;28;20489;-75
2021/11/02 02:01:48;;;;;;;17.95;8.55;;;;;;;6.25;100.00;99864.69;5025443;28;20112;-68
2021/11/02 02:04:28;;;;;;;18.02;9.82;;;;;;;6.21;100.00;99857.78;5022164;28;20461;-76
2021/11/02 02:07:04;;;;;;;15.85;8.52;;;;;;;6.16;100.00;99865.84;5026656;28;20507;-73
2021/11/02 02:09:39;;;;;;;17.92;9.45;;;;;;;6.16;100.00;99865.84;5022865;28;20097;-74
2021/11/02 02:12:27;;;;;;;15.18;8.50;;;;;;;6.17;100.00;99867.59;5025469;28;20049;-74
2021/11/02 02:15:05;;;;;;;17.70;8.68;;;;;;;6.14;100.00;99865.03;5022321;28;20155;-66
2021/11/02 02:17:39;;;;;;;20.40;9.57;;;;;;;6.12;100.00;99859.78;5026573;28;20182;-66
2021/11/02 02:20:09;;;;;;;15.52;8.80;;;;;;;6.13;100.00;99865.94;5028459;28;20068;-68
2021/11/02 02:22:51;;;;;;;20.33;9.23;;;;;;;6.12;100.00;99859.78;5023328;28;20428;-66
2021/11/02 02:25:31;;;;;;;16.27;9.18;;;;;;;6.19;100.00;99864.91;5029550;28;20045;-73
2021/11/02 02:28:09;;;;;;;19.17;9.07;;;;;;;6.21;100.00;99857.78;5022262;28;20264;-73
2021/11/02 02:30:42;;;;;;;19.48;9.18;;;;;;;6.16;100.00;99856.13;5029289;28;20470;-66
2021/11/02 02:33:12;;;;;;;18.83;9.27;;;;;;;6.16;100.00;99850.84;5024118;28;20375;-66
2021/11/02 02:35:43;;;;;;;18.65;9.15;;;;;;;6.17;100.00;99846.41;5027662;28;20052;-66
2021/11/02 02:38:13;;;;;;;22.42;9.98;;;;;;;6.09;100.00;99854.56;5021940;28;20486;-68
2021/11/02 02:40:42;;;;;;;15.25;8.05;;;;;;;6.05;100.00;99852.94;5026455;28;20051;-69
2021/11/02 02:43:11;;;;;;;18.83;8.93;;;;;;;6.07;100.00;99853.75;5028653;28;20049;-67
2021/11/02 02:45:41;;;;;;;17.45;9.00;;;;;;;6.06;100.00;99841.44;5022889;28;20053;-67
2021/11/02 02:48:10;;;;;;;20.63;9.30;;;;;;;6.05;100.00;99841.47;5026602;28;20223;-68
2021/11/02 02:50:39;;;;;;;14.32;7.90;;;;;;;6.00;100.00;99838.09;5023397;28;20067;-66
2021/11/02 02:53:08;;;;;;;21.13;8.52;;;;;;;5.98;100.00;99843.44;5022339;28;20049;-66
2021/11/02 02:55:38;;;;;;;15.05;8.30;;;;;;;5.97;100.00;99828.44;5021692;28;20102;-75
2021/11/02 02:58:06;;;;;;;20.25;9.48;;;;;;;5.96;100.00;99822.28;5024705;28;20116;-68
2021/11/02 03:00:36;;;;;;;19.40;9.48;;;;;;;5.97;100.00;99824.00;5020028;28;20099;-66
2021/11/02 03:03:05;;;;;;;15.73;8.63;;;;;;;6.08;100.00;99821.06;5025663;28;20059;-66
2021/11/02 03:05:33;;;;;;;20.92;8.77;;;;;;;6.04;100.00;99824.69;5025434;28;20037;-68
2021/11/02 03:08:01;;;;;;;20.88;9.38;;;;;;;6.02;100.00;99828.31;5019950;28;20512;-75
2021/11/02 03:10:29;;;;;;;19.17;8.82;;;;;;;6.02;100.00;99809.78;5023367;28;20083;-75
2021/11/02 03:13:02;;;;;;;15.50;8.40;;;;;;;6.03;100.00;99815.03;5023079;28;20422;-74
2021/11/02 03:18:37;;;;;;;17.13;7.85;;;;;;;5.95;100.00;99817.84;5020518;28;20481;-74
2021/11/02 03:49:51;;;;;;;18.63;7.95;;;;;;;5.89;100.00;99841.00;4958357;28;20691;-65
2021/11/02 03:55:10;;;;;;;15.95;8.38;;;;;;;5.83;100.00;99844.69;5021204;28;20109;-75
2021/11/02 03:57:46;;;;;;;15.98;8.18;;;;;;;5.76;100.00;99845.78;5023741;28;20118;-65
2021/11/02 04:00:42;;;;;;;16.92;7.97;;;;;;;5.70;100.00;99845.94;5019078;28;20135;-76
2021/11/02 04:32:01;;;;;;;16.02;7.40;;;;;;;5.59;100.00;99862.13;5024533;28;20072;-68
2021/11/02 04:46:31;;;;;;;17.48;7.38;;;;;;;5.49;100.00;99865.94;4965103;28;20143;-75
2021/11/02 05:47:33;;;;;;;27.52;11.98;;;;;;;5.41;100.00;99874.94;5025653;28;20061;-66
2021/11/02 05:50:12;;;;;;;31.35;11.85;;;;;;;5.50;100.00;99871.19;5025483;28;20041;-70
2021/11/02 05:58:27;;;;;;;30.55;12.75;;;;;;;5.61;100.00;99876.19;5045987;27;20394;-74
2021/11/02 06:01:02;;;;;;;28.33;12.35;;;;;;;5.60;100.00;99885.03;5042420;28;20496;-73
2021/11/02 06:03:39;;;;;;;24.38;12.10;;;;;;;5.65;100.00;99879.63;5041668;28;20078;-74
2021/11/02 06:06:17;;;;;;;28.23;11.95;;;;;;;5.63;100.00;99882.28;5042164;28;20049;-74
2021/11/02 06:09:01;;;;;;;26.65;12.70;;;;;;;5.66;100.00;99884.88;5037720;28;20048;-74
2021/11/02 06:28:51;;;;;;;22.70;11.43;;;;;;;5.77;100.00;99889.88;5045160;28;20052;-75
2021/11/02 06:31:29;;;;;;;26.08;11.48;;;;;;;5.81;100.00;99880.94;5038600;28;20119;-75
2021/11/02 06:34:05;;;;;;;27.63;13.43;;;;;;;5.83;100.00;99883.56;5041793;28;20047;-75
2021/11/02 06:45:31;;;;;;;28.83;11.30;;;;;;;5.88;100.00;99884.28;5040969;28;20045;-74
2021/11/02 06:48:31;;;;;;;24.40;11.85;;;;;;;5.92;100.00;99891.22;5040278;28;20079;-75
2021/11/02 07:19:28;;;;;;;24.70;11.95;;;;;;;6.26;100.00;99895.59;5009398;28;20309;-67
2021/11/02 07:22:11;;;;;;;25.30;11.95;;;;;;;6.30;100.00;99894.56;5029314;28;20497;-67
2021/11/02 07:24:47;;;;;;;26.80;12.15;;;;;;;6.32;100.00;99898.94;5026302;28;20266;-73
2021/11/02 07:27:28;;;;;;;28.60;12.65;;;;;;;6.38;100.00;99897.00;5028052;28;20079;-67
2021/11/02 08:46:01;;;;;;;39.10;18.52;;;;;;;7.22;100.00;99906.75;5027245;28;20075;-75
2021/11/02 08:48:29;;;;;;;35.95;15.75;;;;;;;7.29;100.00;99906.50;5023823;28;20049;-75
2021/11/02 08:51:00;;;;;;;39.35;17.40;;;;;;;7.29;100.00;99910.94;5026125;28;20490;-75
2021/11/02 08:53:29;;;;;;;31.75;16.67;;;;;;;7.35;100.00;99909.88;5025776;28;20095;-75
2021/11/02 08:55:57;;;;;;;37.95;18.67;;;;;;;7.38;100.00;99904.47;5022491;28;20072;-68
2021/11/02 08:58:27;;;;;;;36.83;18.60;;;;;;;7.35;100.00;99902.75;5028523;28;20045;-68
2021/11/02 09:00:56;;;;;;;33.83;16.95;;;;;;;7.47;100.00;99910.34;5023710;28;20269;-75
2021/11/02 09:03:29;;;;;;;35.13;17.88;;;;;;;7.50;100.00;99911.16;5026687;28;20049;-75
2021/11/02 09:06:00;;;;;;;32.13;15.95;;;;;;;7.53;100.00;99911.03;5020654;28;20057;-75
2021/11/02 09:08:31;;;;;;;38.03;17.77;;;;;;;7.53;100.00;99917.22;5026855;28;20044;-68
2021/11/02 09:11:02;;;;;;;41.80;18.90;;;;;;;7.51;100.00;99915.50;5020486;28;20061;-67
2021/11/02 09:13:34;;;;;;;39.78;18.42;;;;;;;7.52;100.00;99914.59;5026234;28;20049;-67
2021/11/02 09:16:05;;;;;;;35.33;18.75;;;;;;;7.43;100.00;99916.66;5026272;28;20060;-67
2021/11/02 09:18:34;;;;;;;35.10;18.08;;;;;;;7.46;100.00;99918.34;5021942;28;20053;-67
2021/11/02 09:21:02;;;;;;;37.17;19.08;;;;;;;7.46;100.00;99915.69;5029277;28;20586;-66
2021/11/02 09:23:31;;;;;;;34.80;19.10;;;;;;;7.45;100.00;99916.59;5024698;28;20335;-67
2021/11/02 09:26:03;;;;;;;32.78;17.27;;;;;;;7.46;100.00;99921.00;5026087;28;20540;-67
2021/11/02 09:28:31;;;;;;;41.42;18.35;;;;;;;7.45;100.00;99922.75;5020107;28;20142;-74
2021/11/02 09:30:59;;;;;;;34.65;17.77;;;;;;;7.51;100.00;99927.03;5028264;28;20471;-73
2021/11/02 09:33:28;;;;;;;40.17;19.38;;;;;;;7.48;100.00;99922.66;5021877;28;20090;-73
2021/11/02 09:35:59;;;;;;;36.20;19.08;;;;;;;7.55;100.00;99919.81;5026082;28;20057;-73
2021/11/02 09:38:32;;;;;;;34.97;18.17;;;;;;;7.56;100.00;99921.53;5024905;28;20544;-73
2021/11/02 09:41:38;;;;;;;36.08;18.98;;;;;;;7.52;100.00;99920.78;5027474;28;20041;-73
2021/11/02 09:44:39;;;;;;;38.08;19.40;;;;;;;7.51;100.00;99915.50;5026806;28;20080;-74
2021/11/02 09:47:43;;;;;;;40.13;17.75;;;;;;;7.56;100.00;99916.22;5024381;28;20056;-73
2021/11/02 09:50:39;;;;;;;36.42;17.73;;;;;;;7.60;100.00;99916.06;5022416;28;20052;-74
2021/11/02 09:53:49;;;;;;;40.85;19.70;;;;;;;7.61;100.00;99920.47;5025510;28;20048;-74
2021/11/02 09:56:30;;;;;;;37.67;18.55;;;;;;;7.57;100.00;99917.97;5017515;28;20099;-74
2021/11/02 09:59:42;;;;;;;37.60;19.10;;;;;;;7.57;100.00;99913.53;5025322;28;20543;-74
2021/11/02 10:02:49;;;;;;;33.60;16.92;;;;;;;7.64;100.00;99914.19;5020722;28;20059;-74
2021/11/02 10:05:34;;;;;;;35.40;17.45;;;;;;;7.65;100.00;99913.28;5025018;28;20132;-74
2021/11/02 10:08:20;;;;;;;35.50;17.88;;;;;;;7.62;100.00;99913.38;5020846;28;20517;-73
2021/11/02 10:11:00;;;;;;;36.15;18.10;;;;;;;7.63;100.00;99913.31;5027731;28;20456;-73
2021/11/02 10:14:01;;;;;;;34.35;18.08;;;;;;;7.60;100.00;99912.56;5019555;28;21217;-74
2021/11/02 10:16:49;;;;;;;35.70;17.92;;;;;;;7.64;100.00;99914.19;5025909;28;20952;-74
2021/11/02 10:20:07;;;;;;;33.72;17.30;;;;;;;7.68;100.00;99915.81;5019396;28;20041;-74
2021/11/02 10:23:10;;;;;;;34.47;17.30;;;;;;;7.67;100.00;99919.38;5024319;28;20065;-74
2021/11/02 10:26:27;;;;;;;35.50;17.92;;;;;;;7.64;100.00;99915.06;5023388;28;21090;-74
2021/11/02 10:29:24;;;;;;;39.25;17.60;;;;;;;7.61;100.00;99909.84;4953495;28;20184;-75
2021/11/02 10:32:00;;;;;;;30.80;15.38;;;;;;;7.67;100.00;99916.72;5022189;28;20171;-75
2021/11/02 10:34:34;;;;;;;32.08;16.17;;;;;;;7.70;100.00;99913.13;5023296;28;20400;-74
2021/11/02 10:37:23;;;;;;;32.80;16.02;;;;;;;7.69;100.00;99916.69;5023678;28;20049;-74
2021/11/02 10:40:14;;;;;;;32.90;16.50;;;;;;;7.76;100.00;99913.75;5026633;28;20057;-68
2021/11/02 10:43:25;;;;;;;30.95;17.48;;;;;;;7.71;100.00;99909.53;5024836;28;20395;-67
2021/11/02 10:46:04;;;;;;;30.38;16.52;;;;;;;7.70;100.00;99908.66;5020837;28;20072;-69
2021/11/02 10:48:40;;;;;;;29.73;15.52;;;;;;;7.70;100.00;99919.28;5025507;28;20090;-67
2021/11/02 10:51:10;;;;;;;29.77;15.85;;;;;;;7.73;100.00;99913.88;5030380;28;20064;-67
2021/11/02 10:53:47;;;;;;;30.13;15.35;;;;;;;7.78;100.00;99909.28;5022375;28;20060;-72
2021/11/02 10:56:42;;;;;;;28.08;14.73;;;;;;;7.79;100.00;99905.66;5031005;28;20131;-67
2021/11/02 10:59:16;;;;;;;26.67;13.73;;;;;;;7.82;100.00;99910.88;5026715;28;20119;-67
2021/11/02 11:01:44;;;;;;;32.63;15.50;;;;;;;7.84;100.00;99913.47;5027654;28;20055;-67
2021/11/02 11:04:15;;;;;;;26.55;14.55;;;;;;;7.79;100.00;99913.63;5024314;28;20153;-67
2021/11/02 11:06:46;;;;;;;30.65;17.00;;;;;;;7.82;100.00;99910.03;5027719;28;20053;-67
2021/11/02 11:09:14;;;;;;;29.75;15.10;;;;;;;7.84;100.00;99917.00;5026942;28;20077;-67
2021/11/02 11:11:47;;;;;;;28.75;15.13;;;;;;;7.85;100.00;99912.56;5028068;28;20579;-67
2021/11/02 11:14:24;;;;;;;30.15;15.27;;;;;;;7.98;100.00;99903.22;5023645;28;20057;-67
2021/11/02 11:16:53;;;;;;;27.83;14.00;;;;;;;8.02;100.00;99909.31;5023602;28;20561;-67
2021/11/02 11:19:27;;;;;;;24.83;13.10;;;;;;;8.18;100.00;99909.59;5020725;28;20045;-67
2021/11/02 11:21:59;;;;;;;26.50;14.27;;;;;;;8.21;100.00;99909.50;5028832;28;20523;-68
2021/11/02 11:24:34;;;;;;;24.10;12.50;;;;;;;8.35;100.00;99907.19;5028378;28;20045;-67
2021/11/02 11:27:06;;;;;;;21.70;11.85;;;;;;;8.42;100.00;99905.16;5019773;28;20060;-74
2021/11/02 11:29:43;;;;;;;22.17;11.98;;;;;;;8.63;100.00;99897.31;5028803;28;20128;-73
2021/11/02 11:32:16;;;;;;;19.73;11.50;;;;;;;8.63;100.00;99895.50;5024204;28;20061;-73
2021/11/02 11:34:47;;;;;;;21.73;11.60;;;;;;;8.56;100.00;99902.88;5029032;28;20392;-74
2021/11/02 11:37:16;;;;;;;19.27;10.27;;;;;;;8.65;100.00;99896.34;5022205;28;20520;-73
2021/11/02 11:39:48;;;;;;;19.33;10.52;;;;;;;8.63;100.00;99902.63;5029805;28;20063;-74
2021/11/02 11:42:18;;;;;;;20.20;9.75;;;;;;;8.67;100.00;99901.59;5022726;28;20152;-74
2021/11/02 11:44:52;;;;;;;18.00;10.38;;;;;;;8.83;100.00;99893.88;5030679;28;20045;-74
2021/11/02 11:47:24;;;;;;;17.42;9.23;;;;;;;8.88;100.00;99889.25;5025403;28;20151;-75
2021/11/02 11:49:52;;;;;;;18.58;9.60;;;;;;;8.82;100.00;99894.78;5028514;28;20045;-74
2021/11/02 11:52:23;;;;;;;16.70;9.35;;;;;;;8.83;100.00;99899.19;5025239;28;20145;-75
2021/11/02 11:54:53;;;;;;;13.65;7.97;;;;;;;9.03;100.00;99891.28;5025939;28;20076;-76
2021/11/02 11:57:29;;;;;;;12.93;7.72;;;;;;;9.02;100.00;99886.88;5028651;28;20118;-75
2021/11/02 12:00:02;;;;;;;13.40;7.35;;;;;;;8.84;100.00;99890.31;5025363;28;20036;-75
2021/11/02 12:02:48;;;;;;;13.10;7.07;;;;;;;8.82;100.00;99889.47;5030050;28;20057;-75
2021/11/02 12:05:18;;;;;;;13.30;6.95;;;;;;;8.65;100.00;99884.81;5024562;28;20057;-74
2021/11/02 12:07:57;;;;;;;11.75;6.80;;;;;;;8.63;100.00;99892.84;5027877;28;20060;-75
2021/11/02 12:10:27;;;;;;;11.02;6.88;;;;;;;8.56;100.00;99894.03;5025510;28;20053;-75
2021/11/02 12:13:00;;;;;;;11.88;7.30;;;;;;;8.57;100.00;99893.97;5025901;28;20406;-76
2021/11/02 12:15:59;;;;;;;10.65;6.55;;;;;;;8.49;100.00;99897.84;5023255;28;20076;-75
2021/11/02 12:18:29;;;;;;;10.10;5.82;;;;;;;8.44;100.00;99894.50;5030257;28;20100;-74
2021/11/02 12:20:58;;;;;;;11.82;6.00;;;;;;;8.37;100.00;99889.38;5027331;28;20367;-75
2021/11/02 12:23:37;;;;;;;9.10;4.90;;;;;;;8.28;100.00;99900.38;5027420;28;20118;-75
2021/11/02 12:26:05;;;;;;;9.02;4.95;;;;;;;8.23;100.00;99895.22;5029473;28;20167;-75
2021/11/02 12:28:36;;;;;;;9.85;4.93;;;;;;;8.16;100.00;99901.69;5023072;28;20054;-74
2021/11/02 12:31:07;;;;;;;9.52;5.25;;;;;;;8.22;100.00;99904.13;5029802;28;20073;-74
2021/11/02 12:33:36;;;;;;;8.73;4.78;;;;;;;8.22;100.00;99896.16;5024505;28;20493;-74
2021/11/02 12:36:05;;;;;;;10.02;4.13;;;;;;;8.30;100.00;99900.31;5025780;28;20045;-74
2021/11/02 12:38:36;;;;;;;6.55;3.83;;;;;;;8.23;100.00;99894.34;5021231;28;20049;-75
2021/11/02 12:41:19;;;;;;;7.35;3.53;;;;;;;8.32;100.00;99895.81;5027166;28;20057;-72
2021/11/02 12:44:03;;;;;;;4.38;2.38;;;;;;;8.22;100.00;99893.50;5024559;28;20556;-73
2021/11/02 12:46:34;;;;;;;5.50;2.67;;;;;;;8.36;100.00;99895.63;5027749;28;20049;-74
2021/11/02 12:49:04;;;;;;;4.13;2.40;;;;;;;8.48;100.00;99896.09;5023561;28;20175;-73
2021/11/02 12:51:39;;;;;;;5.88;2.95;;;;;;;8.63;100.00;99902.63;5025931;28;20077;-67
2021/11/02 12:54:13;;;;;;;5.70;2.60;;;;;;;8.74;100.00;99895.09;5038899;28;20063;-73
2021/11/02 12:56:43;;;;;;;4.80;2.67;;;;;;;8.78;100.00;99899.38;5022922;28;20776;-73
2021/11/02 12:59:22;;;;;;;4.93;2.20;;;;;;;8.70;100.00;99893.47;5027465;28;20040;-73
2021/11/02 13:01:51;;;;;;;5.55;2.60;;;;;;;8.73;100.00;99899.53;5022980;28;20045;-67
2021/11/02 13:04:28;;;;;;;6.18;2.20;;;;;;;8.80;100.00;99889.53;5028326;28;20057;-67
2021/11/02 13:06:56;;;;;;;2.72;1.67;;;;;;;8.72;100.00;99902.28;5023272;28;20452;-68
2021/11/02 13:09:33;;;;;;;5.47;1.80;;;;;;;8.79;100.00;99901.13;5026018;28;20041;-67
2021/11/02 13:12:04;;;;;;;1.90;1.60;;;;;;;8.88;100.00;99907.84;5022230;28;20057;-67
2021/11/02 13:14:39;;;;;;;2.95;1.50;;;;;;;8.90;100.00;99896.22;5028556;28;20147;-67
2021/11/02 13:17:17;;;;;;;3.70;1.35;;;;;;;8.92;100.00;99899.69;5022253;28;20148;-67
2021/11/02 13:19:47;;;;;;;2.92;1.70;;;;;;;8.88;100.00;99902.53;5024522;28;20402;-67
2021/11/02 13:22:19;;;;;;;2.03;1.42;;;;;;;9.00;100.00;99902.03;5028448;28;20202;-67
2021/11/02 13:25:02;;;;;;;2.92;1.48;;;;;;;8.92;100.00;99904.13;5022125;28;20053;-74
2021/11/02 13:27:31;;;;;;;3.22;1.15;;;;;;;8.95;100.00;99902.22;5027653;28;20520;-74
2021/11/02 13:30:30;;;;;;;1.13;1.13;;;;;;;9.01;100.00;99901.13;5019908;28;20144;-74
2021/11/02 13:33:12;;;;;;;3.25;1.23;;;;;;;9.07;100.00;99907.97;5027932;28;20116;-75
2021/11/02 13:35:52;;;;;;;1.98;1.10;;;;;;;9.01;97.54;99916.19;5022640;28;20484;-75
2021/11/02 13:38:32;;;;;;;4.10;1.30;;;;;;;9.15;99.58;99916.53;5026580;28;20270;-75
2021/11/02 13:41:17;;;;;;;2.13;0.98;;;;;;;9.18;99.74;99920.84;5023125;28;20049;-75
2021/11/02 13:43:49;;;;;;;1.30;1.20;;;;;;;9.14;98.15;99923.66;5026860;28;20053;-74
2021/11/02 13:46:22;;;;;;;1.23;1.00;;;;;;;9.16;97.90;99921.78;5023115;28;20140;-75
2021/11/02 13:48:53;;;;;;;1.05;1.00;;;;;;;9.14;97.34;99928.09;5024169;28;20449;-67
2021/11/02 13:51:22;;;;;;;3.35;1.25;;;;;;;9.19;97.58;99928.75;5022053;28;20269;-67
2021/11/02 13:53:50;;;;;;;1.30;1.20;;;;;;;9.22;98.54;99931.31;5023757;28;20412;-68
2021/11/02 13:56:20;;;;;;;2.05;1.00;;;;;;;9.12;95.42;99928.16;5021807;28;20261;-67
2021/11/02 13:58:53;;;;;;;1.38;1.10;;;;;;;9.04;94.69;99927.63;5024205;28;20103;-66
2021/11/02 14:01:26;;;;;;;1.63;0.93;;;;;;;8.98;92.51;99925.19;5027416;28;20044;-66
2021/11/02 14:04:04;;;;;;;0.90;0.90;;;;;;;9.03;94.89;99928.53;5021461;28;20114;-66
2021/11/02 14:06:37;;;;;;;1.45;1.20;;;;;;;8.97;94.76;99931.41;5027445;28;20887;-66
2021/11/02 14:09:10;;;;;;;1.00;1.00;;;;;;;9.05;94.48;99926.66;5024485;28;20061;-66
2021/11/02 14:11:40;;;;;;;2.58;1.20;;;;;;;9.04;94.76;99926.72;5024776;28;20060;-66
2021/11/02 14:14:10;;;;;;;2.05;1.30;;;;;;;9.08;94.45;99925.69;5022388;28;20057;-66
2021/11/02 14:16:41;;;;;;;3.53;1.67;;;;;;;9.11;96.97;99933.56;5027459;28;20355;-66
2021/11/02 14:19:40;;;;;;;1.55;1.00;;;;;;;9.12;95.55;99936.13;5024181;28;20612;-66
2021/11/02 14:22:09;;;;;;;1.85;1.02;;;;;;;9.08;95.65;99928.34;5029384;28;21706;-65
2021/11/02 14:24:40;;;;;;;2.08;1.40;;;;;;;8.98;94.62;99946.47;5026102;28;20259;-65
2021/11/02 14:27:09;;;;;;;2.67;1.40;;;;;;;9.01;95.79;99940.16;5029459;28;20085;-67
2021/11/02 14:29:50;;;;;;;2.45;1.00;;;;;;;8.90;95.70;99952.09;5030378;28;20107;-67
2021/11/02 14:32:50;;;;;;;1.42;1.33;;;;;;;8.94;96.60;99948.41;5029154;28;20141;-65
2021/11/02 14:35:39;;;;;;;3.65;1.70;;;;;;;8.97;96.62;99953.59;5029826;28;20045;-66
2021/11/02 14:38:09;;;;;;;1.98;1.30;;;;;;;8.95;95.89;99949.25;5028719;28;20459;-65
2021/11/02 14:40:38;;;;;;;3.80;1.60;;;;;;;8.90;96.22;99949.41;5031573;28;20300;-74
2021/11/02 14:43:27;;;;;;;2.58;1.60;;;;;;;8.94;96.58;99953.72;5026335;28;20148;-65
2021/11/02 14:45:57;;;;;;;4.80;1.70;;;;;;;8.84;96.44;99956.81;5029991;28;20161;-65
2021/11/02 14:48:35;;;;;;;4.13;1.85;;;;;;;8.90;96.78;99962.72;5025729;28;20046;-65
2021/11/02 14:51:05;;;;;;;4.63;2.00;;;;;;;8.91;97.69;99964.47;5027491;28;20126;-65
2021/11/02 14:53:34;;;;;;;2.47;1.60;;;;;;;8.85;97.57;99964.69;5020431;28;20053;-67
2021/11/02 14:56:06;;;;;;;4.95;2.05;;;;;;;8.89;97.75;99966.34;5041761;28;20049;-66
2021/11/02 14:58:52;;;;;;;3.85;1.73;;;;;;;8.89;98.95;99969.00;5044303;28;20053;-66
2021/11/02 15:01:29;;;;;;;2.55;1.60;;;;;;;8.89;98.85;99969.00;5029176;28;20098;-66
2021/11/02 15:04:04;;;;;;;4.22;2.17;;;;;;;8.83;99.28;99969.22;5031040;28;20167;-65
2021/11/02 15:06:36;;;;;;;4.13;2.25;;;;;;;8.78;98.13;99977.41;5026657;28;20053;-66
2021/11/02 15:09:06;;;;;;;7.28;2.78;;;;;;;8.77;98.69;99980.13;5028697;28;20044;-67
2021/11/02 15:11:35;;;;;;;5.07;2.50;;;;;;;8.74;98.93;99982.88;5028901;28;20052;-67
2021/11/02 15:14:06;;;;;;;4.50;2.30;;;;;;;8.72;99.41;99984.75;5023344;28;20110;-67
2021/11/02 15:16:42;;;;;;;6.90;2.88;;;;;;;8.71;99.26;99975.00;5028936;28;20055;-67
2021/11/02 15:19:11;;;;;;;5.05;2.60;;;;;;;8.74;99.77;99974.91;5022604;28;20501;-67
2021/11/02 15:21:42;;;;;;;4.70;2.17;;;;;;;8.62;98.55;99988.69;5027103;28;20145;-66
2021/11/02 15:24:21;;;;;;;5.70;3.20;;;;;;;8.59;98.93;99984.31;5022325;28;20359;-71
2021/11/02 15:26:53;;;;;;;5.20;2.10;;;;;;;8.62;99.37;99984.22;5026143;28;20053;-73
2021/11/02 15:29:23;;;;;;;4.20;2.03;;;;;;;8.64;99.93;99987.69;5021516;28;20056;-72
2021/11/02 15:31:57;;;;;;;4.35;2.22;;;;;;;8.66;100.00;99979.66;5026095;28;20044;-71
2021/11/02 15:34:32;;;;;;;;;;;;;;;8.69;100.00;99972.41;5029294;28;20080;-73
2021/11/02 15:37:06;;;;;;;5.68;2.47;;;;;;;8.65;99.35;99978.78;5021466;28;19920;-67
2021/11/02 15:39:55;;;;;;;4.15;2.20;;;;;;;8.66;100.00;99983.16;5025279;28;20371;-68
2021/11/02 15:42:30;;;;;;;4.35;2.10;;;;;;;8.60;100.00;99975.44;5024464;28;20076;-68
2021/11/02 15:45:13;;;;;;;3.65;2.00;;;;;;;8.60;100.00;99984.28;5028774;28;20468;-69
2021/11/02 15:47:49;;;;;;;5.03;2.10;;;;;;;8.60;100.00;99980.75;5021849;28;20118;-69
2021/11/02 15:50:28;;;;;;;4.38;2.10;;;;;;;8.59;100.00;99982.53;5029246;28;20515;-71
2021/11/02 15:53:02;;;;;;;3.08;2.30;;;;;;;8.60;100.00;99986.06;5020530;28;20041;-77
2021/11/02 15:55:32;;;;;;;3.92;2.33;;;;;;;8.59;100.00;99984.31;5027157;28;20476;-76
2021/11/02 15:58:02;;;;;;;2.92;2.33;;;;;;;8.58;100.00;99991.44;5024347;28;20057;-68
2021/11/02 16:00:32;;;;;;;6.53;2.60;;;;;;;8.47;100.00;99985.66;5027643;28;20152;-68
2021/11/02 16:03:03;;;;;;;4.97;2.90;;;;;;;8.41;100.00;99993.81;5029523;28;20044;-68
2021/11/02 16:05:33;;;;;;;4.63;2.90;;;;;;;8.37;100.00;99997.50;5027012;28;20130;-67
2021/11/02 16:08:04;;;;;;;6.05;2.80;;;;;;;8.33;100.00;99993.25;5028223;28;20049;-68
2021/11/02 16:10:34;;;;;;;6.50;2.97;;;;;;;8.33;100.00;99998.56;5024219;28;20049;-67
2021/11/02 16:13:04;;;;;;;14.05;7.20;;;;;;;8.25;100.00;99993.50;5027942;28;20079;-67
2021/11/02 16:15:34;;;;;;;28.65;12.55;;;;;;;8.18;100.00;99989.34;5024418;28;20199;-67
2021/11/02 16:18:04;;;;;;;44.92;23.17;;;;;;;8.13;100.00;99989.50;5027285;28;20061;-67
2021/11/02 16:20:34;;;;;;;34.50;16.88;;;;;;;8.07;100.00;99991.50;5025216;28;20077;-67
2021/11/02 16:23:06;;;;;;;19.75;10.52;;;;;;;8.02;100.00;99987.22;5020645;28;20491;-67
2021/11/02 16:25:55;;;;;;;23.27;11.35;;;;;;;7.96;100.00;99986.56;5030118;28;20341;-67
2021/11/02 16:28:25;;;;;;;16.13;9.15;;;;;;;7.91;100.00;99989.38;5023944;28;20092;-67
2021/11/02 16:30:56;;;;;;;11.18;5.45;;;;;;;7.84;100.00;99979.88;5030175;28;20060;-67
2021/11/02 16:33:32;;;;;;;9.55;5.15;;;;;;;7.76;100.00;99985.44;5026861;28;20559;-66